createdAt,value
2022-07-26T19:41:50.695Z,32.00
2022-07-26T19:44:18.125Z,31.90
2022-07-26T19:46:45.828Z,32.00
2022-07-26T19:49:13.512Z,31.90
2022-07-26T19:51:43.155Z,31.90
2022-07-26T19:54:10.173Z,31.80
2022-07-26T19:56:37.308Z,31.80
2022-07-26T19:59:06.886Z,31.70
2022-07-26T20:01:34.058Z,31.80
2022-07-26T20:04:03.054Z,31.80
2022-07-26T20:10:21.569Z,31.90
2022-07-26T20:16:28.047Z,31.80
2022-07-26T20:18:55.025Z,31.60
2022-07-26T20:21:22.320Z,31.50
2022-07-26T20:27:26.590Z,31.30
2022-07-26T20:30:45.301Z,31.40
2022-07-26T20:33:56.993Z,31.40
2022-07-26T20:41:03.782Z,31.30
2022-07-26T20:44:28.559Z,31.20
2022-07-26T20:47:35.705Z,31.20
2022-07-26T20:50:37.993Z,31.20
2022-07-26T20:53:33.296Z,31.30
2022-07-26T21:00:08.233Z,31.30
2022-07-26T21:09:17.227Z,31.10
2022-07-26T21:12:18.980Z,31.20
2022-07-26T21:15:17.071Z,31.10
2022-07-26T21:40:11.761Z,31.10
2022-07-26T22:04:44.623Z,30.90
2022-07-26T22:07:12.142Z,30.80
2022-07-26T22:09:39.356Z,30.90
2022-07-26T22:12:06.604Z,31.00
2022-07-26T22:14:33.650Z,30.90
2022-07-26T22:17:00.877Z,30.90
2022-07-26T22:19:28.084Z,30.90
2022-07-26T22:21:55.090Z,30.80
2022-07-26T22:24:22.341Z,30.90
2022-07-26T22:26:49.377Z,30.70
2022-07-26T22:29:17.399Z,30.70
2022-07-26T22:31:44.557Z,30.80
2022-07-26T22:34:11.560Z,30.70
2022-07-26T22:36:42.190Z,30.70
2022-07-26T22:39:13.289Z,30.70
2022-07-26T22:42:04.921Z,30.70
2022-07-26T22:44:27.626Z,30.70
2022-07-26T22:46:54.773Z,30.70
2022-07-26T22:49:22.232Z,30.80
2022-07-26T22:51:49.441Z,30.80
2022-07-26T22:54:19.627Z,30.90
2022-07-26T22:56:46.655Z,30.90
2022-07-26T22:59:13.987Z,30.80
2022-07-26T23:01:41.741Z,30.90
2022-07-26T23:04:08.822Z,30.80
2022-07-26T23:06:36.094Z,30.80
2022-07-26T23:09:03.290Z,30.70
2022-07-26T23:11:31.807Z,30.70
2022-07-26T23:14:00.335Z,30.70
2022-07-26T23:16:30.097Z,30.70
2022-07-26T23:18:57.212Z,30.60
2022-07-26T23:21:24.212Z,30.60
2022-07-26T23:23:51.141Z,30.70
2022-07-26T23:26:18.226Z,30.70
2022-07-26T23:28:45.846Z,30.60
2022-07-26T23:31:13.154Z,30.60
2022-07-26T23:33:52.292Z,30.70
2022-07-26T23:36:25.631Z,30.70
2022-07-26T23:38:54.400Z,30.70
2022-07-26T23:41:22.041Z,30.70
2022-07-26T23:43:50.458Z,30.90
2022-07-26T23:46:17.927Z,30.90
2022-07-26T23:48:45.502Z,30.90
2022-07-26T23:51:12.890Z,30.80
2022-07-26T23:53:39.861Z,30.80
2022-07-26T23:56:06.922Z,30.70
2022-07-26T23:58:33.974Z,30.70
